Time,TemperatureF,DewpointF,PressureIn,WindDirection,WindDirectionDegrees,WindSpeedMPH,WindSpeedGustMPH,Humidity,HourlyPrecipIn,Conditions,Clouds,dailyrainin,SoftwareType,DateUTC
2013-01-01 00:02:00,32.4,20.8,29.78,ESE,120,3.0,4.0,62,0.00,,,0.00,Wunderground v.1.15,2013-01-01 05:02:00,
2013-01-01 00:16:00,32.4,20.8,29.78,SW,236,2.0,3.0,62,0.00,,,0.00,Wunderground v.1.15,2013-01-01 05:16:00,
2013-01-01 00:26:00,32.0,21.2,29.78,SSW,212,3.0,3.0,64,0.00,,,0.00,Wunderground v.1.15,2013-01-01 05:26:00,
2013-01-01 00:31:00,31.8,21.0,29.77,SW,222,3.0,3.0,64,0.00,,,0.00,Wunderground v.1.15,2013-01-01 05:31:00,
2013-01-01 00:41:00,31.7,21.3,29.77,SW,214,2.0,3.0,65,0.00,,,0.00,Wunderground v.1.15,2013-01-01 05:41:00,
2013-01-01 00:46:00,31.6,21.2,29.77,SSW,205,2.0,3.0,65,0.00,,,0.00,Wunderground v.1.15,2013-01-01 05:46:00,
2013-01-01 00:51:00,31.6,21.5,29.77,SSW,211,2.0,2.0,66,0.00,,,0.00,Wunderground v.1.15,2013-01-01 05:51:00,
2013-01-01 01:01:00,31.5,21.4,29.78,SSW,205,2.0,2.0,66,0.00,,,0.00,Wunderground v.1.15,2013-01-01 06:01:00,
2013-01-01 01:11:00,31.6,21.9,29.77,SSE,157,3.0,3.0,67,0.00,,,0.00,Wunderground v.1.15,2013-01-01 06:11:00,
2013-01-01 01:21:00,32.0,22.3,29.78,SSW,205,3.0,3.0,67,0.00,,,0.00,Wunderground v.1.15,2013-01-01 06:21:00,
2013-01-01 01:26:00,32.5,22.8,29.78,SW,222,3.0,3.0,67,0.00,,,0.00,Wunderground v.1.15,2013-01-01 06:26:00,
2013-01-01 01:36:00,33.3,22.8,29.78,SW,225,3.0,3.0,65,0.00,,,0.00,Wunderground v.1.15,2013-01-01 06:36:00,
2013-01-01 01:41:00,33.5,23.0,29.78,SSE,162,3.0,4.0,65,0.00,,,0.00,Wunderground v.1.15,2013-01-01 06:41:00,
2013-01-01 01:51:00,34.2,23.3,29.77,SSE,155,3.0,5.0,64,0.00,,,0.00,Wunderground v.1.15,2013-01-01 06:51:00,
2013-01-01 01:56:00,34.5,23.6,29.77,SSE,165,3.0,7.0,64,0.00,,,0.00,Wunderground v.1.15,2013-01-01 06:56:00,
2013-01-01 02:01:00,34.6,23.7,29.77,South,170,4.0,7.0,64,0.00,,,0.00,Wunderground v.1.15,2013-01-01 07:01:00,
2013-01-01 02:11:00,35.8,24.0,29.77,SW,233,4.0,4.0,62,0.00,,,0.00,Wunderground v.1.15,2013-01-01 07:11:00,
2013-01-01 02:21:00,36.1,23.9,29.77,SSW,201,2.0,2.0,61,0.00,,,0.00,Wunderground v.1.15,2013-01-01 07:21:00,
2013-01-01 02:26:00,36.3,23.7,29.77,SSW,204,3.0,3.0,60,0.00,,,0.00,Wunderground v.1.15,2013-01-01 07:26:00,
2013-01-01 02:36:00,36.2,24.0,29.76,SE,142,2.0,3.0,61,0.00,,,0.00,Wunderground v.1.15,2013-01-01 07:36:00,
2013-01-01 02:41:00,36.2,23.6,29.76,SSW,200,3.0,3.0,60,0.00,,,0.00,Wunderground v.1.15,2013-01-01 07:41:00,
2013-01-01 02:46:00,36.1,23.9,29.76,SSW,203,3.0,3.0,61,0.00,,,0.00,Wunderground v.1.15,2013-01-01 07:46:00,
2013-01-01 02:56:00,35.7,23.9,29.76,SSE,150,2.0,3.0,62,0.00,,,0.00,Wunderground v.1.15,2013-01-01 07:56:00,
2013-01-01 03:01:00,35.7,23.6,29.76,SE,143,3.0,7.0,61,0.00,,,0.00,Wunderground v.1.15,2013-01-01 08:01:00,
2013-01-01 03:11:00,35.4,23.7,29.76,SW,229,2.0,2.0,62,0.00,,,0.00,Wunderground v.1.15,2013-01-01 08:11:00,
2013-01-01 03:16:00,35.6,23.5,29.76,SSW,210,3.0,3.0,61,0.00,,,0.00,Wunderground v.1.15,2013-01-01 08:16:00,
2013-01-01 03:21:00,35.7,23.6,29.75,WSW,238,3.0,5.0,61,0.00,,,0.00,Wunderground v.1.15,2013-01-01 08:21:00,
2013-01-01 03:26:00,35.6,23.5,29.75,SSW,211,3.0,5.0,61,0.00,,,0.00,Wunderground v.1.15,2013-01-01 08:26:00,
2013-01-01 03:36:00,35.3,23.2,29.75,SSE,150,1.0,2.0,61,0.00,,,0.00,Wunderground v.1.15,2013-01-01 08:36:00,
2013-01-01 03:41:00,35.4,23.7,29.75,SE,146,2.0,5.0,62,0.00,,,0.00,Wunderground v.1.15,2013-01-01 08:41:00,
2013-01-01 03:51:00,35.5,24.1,29.75,SW,233,3.0,3.0,63,0.00,,,0.00,Wunderground v.1.15,2013-01-01 08:51:00,
2013-01-01 03:56:00,35.5,23.8,29.75,SSE,158,2.0,3.0,62,0.00,,,0.00,Wunderground v.1.15,2013-01-01 08:56:00,
2013-01-01 04:01:00,35.6,23.9,29.75,SSE,153,1.0,3.0,62,0.00,,,0.00,Wunderground v.1.15,2013-01-01 09:01:00,
2013-01-01 04:11:00,35.7,23.9,29.76,SSE,155,2.0,2.0,62,0.00,,,0.00,Wunderground v.1.15,2013-01-01 09:11:00,
2013-01-01 04:16:00,35.6,24.2,29.76,SE,146,2.0,2.0,63,0.00,,,0.00,Wunderground v.1.15,2013-01-01 09:16:00,
2013-01-01 04:26:00,35.7,23.9,29.76,SSE,163,3.0,3.0,62,0.00,,,0.00,Wunderground v.1.15,2013-01-01 09:26:00,
2013-01-01 04:31:00,35.7,24.3,29.76,SE,140,2.0,2.0,63,0.00,,,0.00,Wunderground v.1.15,2013-01-01 09:31:00,
2013-01-01 04:41:00,35.5,24.5,29.76,SSE,165,1.0,2.0,64,0.00,,,0.00,Wunderground v.1.15,2013-01-01 09:41:00,
2013-01-01 04:46:00,35.5,24.5,29.76,SW,222,2.0,2.0,64,0.00,,,0.00,Wunderground v.1.15,2013-01-01 09:46:00,
2013-01-01 04:51:00,35.8,24.8,29.76,NNE,30,2.0,2.0,64,0.00,,,0.00,Wunderground v.1.15,2013-01-01 09:51:00,
2013-01-01 05:01:00,36.3,23.7,29.76,NW,305,3.0,3.0,60,0.00,,,0.00,Wunderground v.1.15,2013-01-01 10:01:00,
2013-01-01 05:11:00,37.9,28.3,29.77,ENE,64,2.0,2.0,68,0.00,,,0.00,Wunderground v.1.15,2013-01-01 10:11:00,
2013-01-01 05:21:00,36.6,24.0,29.76,West,279,1.0,4.0,60,0.00,,,0.00,Wunderground v.1.15,2013-01-01 10:21:00,
2013-01-01 05:26:00,36.6,24.0,29.76,ENE,58,2.0,4.0,60,0.00,,,0.00,Wunderground v.1.15,2013-01-01 10:26:00,
2013-01-01 05:36:00,36.6,24.4,29.77,NE,37,2.0,2.0,61,0.00,,,0.00,Wunderground v.1.15,2013-01-01 10:36:00,
2013-01-01 05:41:00,36.6,23.6,29.77,NW,325,2.0,2.0,59,0.00,,,0.00,Wunderground v.1.15,2013-01-01 10:41:00,
2013-01-01 05:51:00,36.8,23.8,29.77,NNW,338,3.0,5.0,59,0.00,,,0.00,Wunderground v.1.15,2013-01-01 10:51:00,
2013-01-01 05:56:00,36.8,24.2,29.78,NW,304,3.0,5.0,60,0.00,,,0.00,Wunderground v.1.15,2013-01-01 10:56:00,
2013-01-01 06:01:00,36.7,23.7,29.78,NW,314,5.0,5.0,59,0.00,,,0.00,Wunderground v.1.15,2013-01-01 11:01:00,
2013-01-01 06:11:00,36.7,23.3,29.78,NW,309,3.0,3.0,58,0.00,,,0.00,Wunderground v.1.15,2013-01-01 11:11:00,
2013-01-01 06:16:00,36.4,23.8,29.78,NW,314,2.0,3.0,60,0.00,,,0.00,Wunderground v.1.15,2013-01-01 11:16:00,
2013-01-01 06:26:00,36.4,23.0,29.78,North,349,5.0,5.0,58,0.00,,,0.00,Wunderground v.1.15,2013-01-01 11:26:00,
2013-01-01 06:31:00,36.5,22.7,29.79,WNW,298,6.0,7.0,57,0.00,,,0.00,Wunderground v.1.15,2013-01-01 11:31:00,
2013-01-01 06:36:00,36.8,23.8,29.79,NE,56,4.0,7.0,59,0.00,,,0.00,Wunderground v.1.15,2013-01-01 11:36:00,
2013-01-01 06:46:00,36.4,23.4,29.79,NNE,28,3.0,5.0,59,0.00,,,0.00,Wunderground v.1.15,2013-01-01 11:46:00,
2013-01-01 06:51:00,36.1,21.9,29.79,NE,34,5.0,7.0,56,0.00,,,0.00,Wunderground v.1.15,2013-01-01 11:51:00,
2013-01-01 07:01:00,35.5,20.0,29.80,West,271,8.0,8.0,53,0.00,,,0.00,Wunderground v.1.15,2013-01-01 12:01:00,
2013-01-01 07:11:00,35.1,19.2,29.81,West,279,4.0,15.0,52,0.00,,,0.00,Wunderground v.1.15,2013-01-01 12:11:00,
2013-01-01 07:16:00,35.0,19.1,29.81,West,271,6.0,15.0,52,0.00,,,0.00,Wunderground v.1.15,2013-01-01 12:16:00,
2013-01-01 07:26:00,34.7,19.3,29.82,NW,322,4.0,6.0,53,0.00,,,0.00,Wunderground v.1.15,2013-01-01 12:26:00,
2013-01-01 07:31:00,34.4,18.6,29.82,ENE,64,4.0,5.0,52,0.00,,,0.00,Wunderground v.1.15,2013-01-01 12:31:00,
2013-01-01 07:41:00,34.2,19.7,29.81,NE,51,5.0,5.0,55,0.00,,,0.00,Wunderground v.1.15,2013-01-01 12:41:00,
2013-01-01 07:46:00,34.1,17.4,29.81,WNW,288,5.0,7.0,50,0.00,,,0.00,Wunderground v.1.15,2013-01-01 12:46:00,
2013-01-01 07:56:00,34.0,16.8,29.81,West,280,6.0,12.0,49,0.00,,,0.00,Wunderground v.1.15,2013-01-01 12:56:00,
2013-01-01 08:01:00,34.0,16.8,29.82,WSW,251,7.0,7.0,49,0.00,,,0.00,Wunderground v.1.15,2013-01-01 13:01:00,
2013-01-01 08:11:00,33.9,16.7,29.82,NNW,329,5.0,5.0,49,0.00,,,0.00,Wunderground v.1.15,2013-01-01 13:11:00,
2013-01-01 08:16:00,33.7,16.5,29.83,WNW,298,5.0,6.0,49,0.00,,,0.00,Wunderground v.1.15,2013-01-01 13:16:00,
2013-01-01 08:21:00,33.7,17.9,29.82,NNW,333,5.0,5.0,52,0.00,,,0.00,Wunderground v.1.15,2013-01-01 13:21:00,
2013-01-01 08:31:00,33.6,16.0,29.82,WNW,293,5.0,5.0,48,0.00,,,0.00,Wunderground v.1.15,2013-01-01 13:31:00,
2013-01-01 08:36:00,33.9,18.1,29.82,WNW,293,6.0,11.0,52,0.00,,,0.00,Wunderground v.1.15,2013-01-01 13:36:00,
2013-01-01 08:41:00,33.7,17.5,29.83,WNW,291,5.0,8.0,51,0.00,,,0.00,Wunderground v.1.15,2013-01-01 13:41:00,
2013-01-01 08:51:00,33.4,16.7,29.84,NNW,340,6.0,6.0,50,0.00,,,0.00,Wunderground v.1.15,2013-01-01 13:51:00,
2013-01-01 09:01:00,33.5,18.2,29.84,NW,323,4.0,10.0,53,0.00,,,0.00,Wunderground v.1.15,2013-01-01 14:01:00,
2013-01-01 09:11:00,33.6,16.0,29.84,NW,319,4.0,5.0,48,0.00,,,0.00,Wunderground v.1.15,2013-01-01 14:11:00,
2013-01-01 09:16:00,34.3,21.4,29.84,WNW,284,3.0,5.0,59,0.00,,,0.00,Wunderground v.1.15,2013-01-01 14:16:00,
2013-01-01 09:21:00,34.0,16.3,29.85,NNW,336,4.0,5.0,48,0.00,,,0.00,Wunderground v.1.15,2013-01-01 14:21:00,
2013-01-01 09:31:00,33.3,15.2,29.85,NW,324,3.0,8.0,47,0.00,,,0.00,Wunderground v.1.15,2013-01-01 14:31:00,
2013-01-01 09:36:00,33.2,15.6,29.86,NW,307,4.0,8.0,48,0.00,,,0.00,Wunderground v.1.15,2013-01-01 14:36:00,
2013-01-01 09:41:00,33.4,18.1,29.86,WSW,256,3.0,3.0,53,0.00,,,0.00,Wunderground v.1.15,2013-01-01 14:41:00,
2013-01-01 09:46:00,33.3,15.2,29.86,WNW,292,3.0,4.0,47,0.00,,,0.00,Wunderground v.1.15,2013-01-01 14:46:00,
2013-01-01 09:56:00,32.9,15.8,29.87,NW,319,4.0,4.0,49,0.00,,,0.00,Wunderground v.1.15,2013-01-01 14:56:00,
2013-01-01 10:01:00,32.8,15.2,29.87,WSW,238,3.0,4.0,48,0.00,,,0.00,Wunderground v.1.15,2013-01-01 15:01:00,
2013-01-01 10:11:00,32.8,14.8,29.88,WSW,248,3.0,3.0,47,0.00,,,0.00,Wunderground v.1.15,2013-01-01 15:11:00,
2013-01-01 10:16:00,33.0,14.9,29.88,NNW,334,2.0,5.0,47,0.00,,,0.00,Wunderground v.1.15,2013-01-01 15:16:00,
2013-01-01 10:21:00,32.9,15.8,29.88,West,270,3.0,5.0,49,0.00,,,0.00,Wunderground v.1.15,2013-01-01 15:21:00,
2013-01-01 10:31:00,32.7,14.7,29.88,WSW,257,4.0,4.0,47,0.00,,,0.00,Wunderground v.1.15,2013-01-01 15:31:00,
2013-01-01 10:36:00,32.6,13.6,29.87,NNW,335,5.0,5.0,45,0.00,,,0.00,Wunderground v.1.15,2013-01-01 15:36:00,
2013-01-01 10:41:00,32.5,14.5,29.87,SW,218,5.0,6.0,47,0.00,,,0.00,Wunderground v.1.15,2013-01-01 15:41:00,
2013-01-01 10:51:00,32.6,14.1,29.86,NW,326,3.0,3.0,46,0.00,,,0.00,Wunderground v.1.15,2013-01-01 15:51:00,
2013-01-01 11:01:00,32.5,14.5,29.86,WNW,295,3.0,9.0,47,0.00,,,0.00,Wunderground v.1.15,2013-01-01 16:01:00,
2013-01-01 11:11:00,32.4,13.4,29.86,NW,319,6.0,6.0,45,0.00,,,0.00,Wunderground v.1.15,2013-01-01 16:11:00,
2013-01-01 11:21:00,33.4,16.7,29.87,NNE,17,4.0,4.0,50,0.00,,,0.00,Wunderground v.1.15,2013-01-01 16:21:00,
2013-01-01 11:26:00,33.3,14.7,29.86,NNW,345,3.0,4.0,46,0.00,,,0.00,Wunderground v.1.15,2013-01-01 16:26:00,
2013-01-01 11:36:00,33.0,14.9,29.86,SW,225,4.0,4.0,47,0.00,,,0.00,Wunderground v.1.15,2013-01-01 16:36:00,
2013-01-01 11:46:00,33.1,16.9,29.85,NE,54,4.0,5.0,51,0.00,,,0.00,Wunderground v.1.15,2013-01-01 16:46:00,
2013-01-01 11:51:00,33.0,15.9,29.85,NW,326,3.0,4.0,49,0.00,,,0.00,Wunderground v.1.15,2013-01-01 16:51:00,
2013-01-01 12:01:00,32.7,13.7,29.85,West,274,6.0,6.0,45,0.00,,,0.00,Wunderground v.1.15,2013-01-01 17:01:00,
2013-01-01 12:11:00,32.9,14.4,29.84,West,274,4.0,4.0,46,0.00,,,0.00,Wunderground v.1.15,2013-01-01 17:11:00,
2013-01-01 12:21:00,33.0,13.4,29.84,NNW,347,3.0,15.0,44,0.00,,,0.00,Wunderground v.1.15,2013-01-01 17:21:00,
2013-01-01 12:26:00,32.7,12.6,29.83,WNW,288,5.0,15.0,43,0.00,,,0.00,Wunderground v.1.15,2013-01-01 17:26:00,
2013-01-01 12:36:00,32.2,12.2,29.83,West,271,8.0,10.0,43,0.00,,,0.00,Wunderground v.1.15,2013-01-01 17:36:00,
2013-01-01 12:46:00,32.0,11.5,29.84,WNW,302,7.0,11.0,42,0.00,,,0.00,Wunderground v.1.15,2013-01-01 17:46:00,
2013-01-01 12:51:00,31.8,11.3,29.84,WNW,288,8.0,12.0,42,0.00,,,0.00,Wunderground v.1.15,2013-01-01 17:51:00,
2013-01-01 13:01:00,31.7,10.7,29.84,NNW,345,8.0,8.0,41,0.00,,,0.00,Wunderground v.1.15,2013-01-01 18:01:00,
2013-01-01 13:11:00,31.4,10.4,29.83,NNW,341,10.0,10.0,41,0.00,,,0.00,Wunderground v.1.15,2013-01-01 18:11:00,
2013-01-01 13:16:00,31.9,14.4,29.82,NNE,28,8.0,10.0,48,0.00,,,0.00,Wunderground v.1.15,2013-01-01 18:16:00,
2013-01-01 13:21:00,32.1,10.5,29.82,NNW,333,5.0,5.0,40,0.00,,,0.00,Wunderground v.1.15,2013-01-01 18:21:00,
2013-01-01 13:31:00,31.9,10.3,29.83,NW,326,8.0,8.0,40,0.00,,,0.00,Wunderground v.1.15,2013-01-01 18:31:00,
2013-01-01 13:36:00,31.9,10.3,29.83,WNW,302,7.0,8.0,40,0.00,,,0.00,Wunderground v.1.15,2013-01-01 18:36:00,
2013-01-01 13:46:00,32.1,9.3,29.83,NNW,345,8.0,11.0,38,0.00,,,0.00,Wunderground v.1.15,2013-01-01 18:46:00,
2013-01-01 13:51:00,31.8,10.2,29.83,NW,314,8.0,8.0,40,0.00,,,0.00,Wunderground v.1.15,2013-01-01 18:51:00,
2013-01-01 14:01:00,31.3,9.2,29.84,NW,307,7.0,7.0,39,0.00,,,0.00,Wunderground v.1.15,2013-01-01 19:01:00,
2013-01-01 14:11:00,31.0,10.6,29.84,NNW,335,5.0,5.0,42,0.00,,,0.00,Wunderground v.1.15,2013-01-01 19:11:00,
2013-01-01 14:21:00,30.8,9.8,29.83,NNE,12,5.0,5.0,41,0.00,,,0.00,Wunderground v.1.15,2013-01-01 19:21:00,
2013-01-01 14:31:00,30.4,10.0,29.83,WSW,243,5.0,5.0,42,0.00,,,0.00,Wunderground v.1.15,2013-01-01 19:31:00,
2013-01-01 14:36:00,30.4,11.1,29.83,WNW,298,6.0,6.0,44,0.00,,,0.00,Wunderground v.1.15,2013-01-01 19:36:00,
2013-01-01 14:46:00,30.1,9.7,29.83,West,261,6.0,9.0,42,0.00,,,0.00,Wunderground v.1.15,2013-01-01 19:46:00,
2013-01-01 14:51:00,30.1,9.7,29.84,SW,236,5.0,5.0,42,0.00,,,0.00,Wunderground v.1.15,2013-01-01 19:51:00,
2013-01-01 15:01:00,30.0,9.6,29.85,NW,325,8.0,8.0,42,0.00,,,0.00,Wunderground v.1.15,2013-01-01 20:01:00,
2013-01-01 15:11:00,29.6,9.8,29.85,WNW,302,7.0,7.0,43,0.00,,,0.00,Wunderground v.1.15,2013-01-01 20:11:00,
2013-01-01 15:16:00,29.4,9.6,29.85,NW,323,7.0,10.0,43,0.00,,,0.00,Wunderground v.1.15,2013-01-01 20:16:00,
2013-01-01 15:26:00,29.1,9.9,29.85,NW,307,5.0,7.0,44,0.00,,,0.00,Wunderground v.1.15,2013-01-01 20:26:00,
2013-01-01 15:36:00,28.9,9.7,29.84,West,267,4.0,5.0,44,0.00,,,0.00,Wunderground v.1.15,2013-01-01 20:36:00,
2013-01-01 15:41:00,28.8,10.6,29.85,WSW,244,4.0,4.0,46,0.00,,,0.00,Wunderground v.1.15,2013-01-01 20:41:00,
2013-01-01 15:46:00,28.7,10.0,29.86,NNE,25,4.0,4.0,45,0.00,,,0.00,Wunderground v.1.15,2013-01-01 20:46:00,
2013-01-01 15:56:00,28.6,11.4,29.86,NW,316,4.0,4.0,48,0.00,,,0.00,Wunderground v.1.15,2013-01-01 20:56:00,
2013-01-01 16:01:00,28.5,10.8,29.86,WNW,303,3.0,4.0,47,0.00,,,0.00,Wunderground v.1.15,2013-01-01 21:01:00,
2013-01-01 16:11:00,28.5,11.7,29.86,WNW,298,2.0,6.0,49,0.00,,,0.00,Wunderground v.1.15,2013-01-01 21:11:00,
2013-01-01 16:21:00,28.3,11.1,29.86,NW,322,3.0,3.0,48,0.00,,,0.00,Wunderground v.1.15,2013-01-01 21:21:00,
2013-01-01 16:26:00,28.2,11.9,29.86,WNW,302,4.0,9.0,50,0.00,,,0.00,Wunderground v.1.15,2013-01-01 21:26:00,
2013-01-01 16:36:00,28.6,13.2,29.87,NNW,348,3.0,7.0,52,0.00,,,0.00,Wunderground v.1.15,2013-01-01 21:36:00,
2013-01-01 16:46:00,27.9,11.2,29.87,NW,314,4.0,6.0,49,0.00,,,0.00,Wunderground v.1.15,2013-01-01 21:46:00,
2013-01-01 16:51:00,28.0,11.7,29.87,NE,42,3.0,5.0,50,0.00,,,0.00,Wunderground v.1.15,2013-01-01 21:51:00,
2013-01-01 17:01:00,28.0,12.2,29.88,NNE,33,3.0,3.0,51,0.00,,,0.00,Wunderground v.1.15,2013-01-01 22:01:00,
2013-01-01 17:11:00,27.5,11.3,29.88,NW,321,3.0,3.0,50,0.00,,,0.00,Wunderground v.1.15,2013-01-01 22:11:00,
2013-01-01 17:16:00,27.3,11.1,29.88,NW,321,3.0,3.0,50,0.00,,,0.00,Wunderground v.1.15,2013-01-01 22:16:00,
2013-01-01 17:21:00,27.3,11.5,29.88,WNW,300,2.0,5.0,51,0.00,,,0.00,Wunderground v.1.15,2013-01-01 22:21:00,
2013-01-01 17:31:00,27.0,11.3,29.88,South,170,2.0,2.0,51,0.00,,,0.00,Wunderground v.1.15,2013-01-01 22:31:00,
2013-01-01 17:36:00,27.0,11.3,29.89,SW,233,2.0,2.0,51,0.00,,,0.00,Wunderground v.1.15,2013-01-01 22:36:00,
2013-01-01 17:41:00,26.8,10.6,29.89,SW,233,2.0,4.0,50,0.00,,,0.00,Wunderground v.1.15,2013-01-01 22:41:00,
2013-01-01 17:51:00,26.6,10.4,29.90,West,274,3.0,3.0,50,0.00,,,0.00,Wunderground v.1.15,2013-01-01 22:51:00,
2013-01-01 17:56:00,26.6,10.9,29.90,West,274,2.0,3.0,51,0.00,,,0.00,Wunderground v.1.15,2013-01-01 22:56:00,
2013-01-01 18:01:00,26.3,10.6,29.91,West,273,1.0,2.0,51,0.00,,,0.00,Wunderground v.1.15,2013-01-01 23:01:00,
2013-01-01 18:11:00,27.0,10.8,29.91,NW,312,3.0,4.0,50,0.00,,,0.00,Wunderground v.1.15,2013-01-01 23:11:00,
2013-01-01 18:16:00,26.5,10.3,29.91,NW,309,3.0,4.0,50,0.00,,,0.00,Wunderground v.1.15,2013-01-01 23:16:00,
2013-01-01 18:26:00,26.3,14.3,29.92,NNW,338,1.0,2.0,60,0.00,,,0.00,Wunderground v.1.15,2013-01-01 23:26:00,
2013-01-01 18:36:00,26.1,9.5,29.92,NNE,14,3.0,3.0,49,0.00,,,0.00,Wunderground v.1.15,2013-01-01 23:36:00,
2013-01-01 18:41:00,26.8,10.2,29.92,SW,229,2.0,4.0,49,0.00,,,0.00,Wunderground v.1.15,2013-01-01 23:41:00,
2013-01-01 18:46:00,26.3,9.7,29.92,ENE,68,3.0,6.0,49,0.00,,,0.00,Wunderground v.1.15,2013-01-01 23:46:00,
2013-01-01 18:56:00,25.5,9.0,29.93,NNE,25,5.0,5.0,49,0.00,,,0.00,Wunderground v.1.15,2013-01-01 23:56:00,
2013-01-01 19:01:00,25.9,10.2,29.94,NW,323,4.0,4.0,51,0.00,,,0.00,Wunderground v.1.15,2013-01-02 00:01:00,
2013-01-01 19:11:00,25.8,7.4,29.94,West,259,3.0,3.0,45,0.00,,,0.00,Wunderground v.1.15,2013-01-02 00:11:00,
2013-01-01 19:21:00,24.9,6.5,29.95,NW,321,5.0,5.0,45,0.00,,,0.00,Wunderground v.1.15,2013-01-02 00:21:00,
2013-01-01 19:31:00,25.0,7.6,29.94,North,8,1.0,4.0,47,0.00,,,0.00,Wunderground v.1.15,2013-01-02 00:31:00,
2013-01-01 19:36:00,24.5,6.6,29.94,NE,43,2.0,4.0,46,0.00,,,0.00,Wunderground v.1.15,2013-01-02 00:36:00,
2013-01-01 19:46:00,24.6,6.7,29.95,NNE,22,3.0,4.0,46,0.00,,,0.00,Wunderground v.1.15,2013-01-02 00:46:00,
2013-01-01 19:51:00,25.1,12.4,29.94,NE,34,3.0,3.0,58,0.00,,,0.00,Wunderground v.1.15,2013-01-02 00:51:00,
2013-01-01 20:01:00,25.0,10.3,29.95,NNE,20,2.0,2.0,53,0.00,,,0.00,Wunderground v.1.15,2013-01-02 01:01:00,
2013-01-01 20:11:00,24.7,15.6,29.95,NNE,23,3.0,3.0,68,0.00,,,0.00,Wunderground v.1.15,2013-01-02 01:11:00,
2013-01-01 20:16:00,24.2,6.4,29.95,ENE,64,2.0,4.0,46,0.00,,,0.00,Wunderground v.1.15,2013-01-02 01:16:00,
2013-01-01 20:26:00,24.2,7.3,29.94,NNE,15,2.0,2.0,48,0.00,,,0.00,Wunderground v.1.15,2013-01-02 01:26:00,
2013-01-01 20:31:00,23.9,14.9,29.95,NNW,347,1.0,5.0,68,0.00,,,0.00,Wunderground v.1.15,2013-01-02 01:31:00,
2013-01-01 20:41:00,23.1,4.9,29.95,WNW,302,3.0,5.0,45,0.00,,,0.00,Wunderground v.1.15,2013-01-02 01:41:00,
2013-01-01 20:51:00,22.2,3.6,29.95,WSW,248,3.0,3.0,44,0.00,,,0.00,Wunderground v.1.15,2013-01-02 01:51:00,
2013-01-01 21:01:00,21.5,3.9,29.95,NW,305,2.0,2.0,46,0.00,,,0.00,Wunderground v.1.15,2013-01-02 02:01:00,
2013-01-01 21:11:00,21.9,3.8,29.95,North,10,2.0,2.0,45,0.00,,,0.00,Wunderground v.1.15,2013-01-02 02:11:00,
2013-01-01 21:21:00,21.7,3.6,29.96,NNW,338,3.0,3.0,45,0.00,,,0.00,Wunderground v.1.15,2013-01-02 02:21:00,
2013-01-01 21:31:00,21.1,2.6,29.96,NE,39,1.0,1.0,44,0.00,,,0.00,Wunderground v.1.15,2013-01-02 02:31:00,
2013-01-01 21:36:00,21.0,3.0,29.96,WNW,290,2.0,2.0,45,0.00,,,0.00,Wunderground v.1.15,2013-01-02 02:36:00,
2013-01-01 21:46:00,20.7,3.2,29.96,WSW,245,1.0,3.0,46,0.00,,,0.00,Wunderground v.1.15,2013-01-02 02:46:00,
2013-01-01 21:51:00,20.6,3.1,29.96,WSW,250,2.0,4.0,46,0.00,,,0.00,Wunderground v.1.15,2013-01-02 02:51:00,
2013-01-01 22:01:00,20.2,2.2,29.96,WNW,302,2.0,2.0,45,0.00,,,0.00,Wunderground v.1.15,2013-01-02 03:01:00,
2013-01-01 22:11:00,20.4,2.4,29.97,NNE,20,2.0,2.0,45,0.00,,,0.00,Wunderground v.1.15,2013-01-02 03:11:00,
2013-01-01 22:16:00,20.2,2.2,29.97,West,259,1.0,2.0,45,0.00,,,0.00,Wunderground v.1.15,2013-01-02 03:16:00,
2013-01-01 22:26:00,19.6,3.5,29.98,North,5,1.0,1.0,49,0.00,,,0.00,Wunderground v.1.15,2013-01-02 03:26:00,
2013-01-01 22:36:00,19.6,3.1,29.98,West,275,0.0,1.0,48,0.00,,,0.00,Wunderground v.1.15,2013-01-02 03:36:00,
2013-01-01 22:46:00,18.6,2.1,29.99,WSW,246,0.0,0.0,48,0.00,,,0.00,Wunderground v.1.15,2013-01-02 03:46:00,
2013-01-01 22:56:00,19.1,0.7,29.98,NE,47,1.0,1.0,44,0.00,,,0.00,Wunderground v.1.15,2013-01-02 03:56:00,
2013-01-01 23:01:00,20.1,9.9,29.99,NE,39,1.0,1.0,64,0.00,,,0.00,Wunderground v.1.15,2013-01-02 04:01:00,
2013-01-01 23:11:00,18.6,2.6,29.98,SE,142,0.0,1.0,49,0.00,,,0.00,Wunderground v.1.15,2013-01-02 04:11:00,
2013-01-01 23:16:00,19.0,4.7,29.98,NE,51,0.0,1.0,53,0.00,,,0.00,Wunderground v.1.15,2013-01-02 04:16:00,
2013-01-01 23:26:00,18.1,4.6,29.99,NE,47,0.0,0.0,55,0.00,,,0.00,Wunderground v.1.15,2013-01-02 04:26:00,
2013-01-01 23:31:00,18.4,2.0,29.99,NE,51,0.0,0.0,48,0.00,,,0.00,Wunderground v.1.15,2013-01-02 04:31:00,
2013-01-01 23:41:00,16.2,1.2,29.98,East,97,0.0,0.0,51,0.00,,,0.00,Wunderground v.1.15,2013-01-02 04:41:00,
2013-01-01 23:51:00,15.3,1.2,29.98,ESE,110,0.0,0.0,53,0.00,,,0.00,Wunderground v.1.15,2013-01-02 04:51:00,
2013-01-01 23:56:00,14.5,0.5,29.98,SE,136,0.0,0.0,53,0.00,,,0.00,Wunderground v.1.15,2013-01-02 04:56:00,